Home   Weather   USA   Breckenridge   Past weeks
Flag for USA

Past Weather in Breckenridge, Colorado, USA — Yesterday and Last 2 Weeks

Currently: 21 °F. Passing clouds. (Weather station: Copper Mountain - Red Cliff Pass, USA). See more current weather

Past Weather in Breckenridge — Graph

°F

Breckenridge Temperature Yesterday

Maximum temperature yesterday: 32 °F (at 11:55 am)
Minimum temperature yesterday: 21 °F (at 7:15 pm)
Average temperature yesterday: 26 °F

High & Low Weather Summary for the Past Weeks

 TemperatureHumidityPressure
High34 °F (Feb 19, 3:15 pm)86% (Feb 12, 11:15 am)30.31 "Hg (Feb 12, 11:15 am)
Low5 °F (Feb 11, 5:15 am)3% (Feb 18, 2:15 am)29.52 "Hg (Feb 7, 2:15 pm)
Average20 °F66%29.99 "Hg
* Reported Feb 6 11:15 pm — Feb 21 11:55 pm, Breckenridge. Weather by CustomWeather, © 2024

Note: Actual official high and low records may vary slightly from our data, if they occured in-between our weather recording intervals... More about our weather records

Breckenridge Weather History for the Previous 24 Hours

Scroll right to see more
 ConditionsComfort  
Time TempWeatherWind HumidityBarometerVisibility
11:55 pm
Wed, Feb 21
21 °FPassing clouds.10 mph68%30.07 "Hg10 mi
11:35 pm21 °FLight snow. Overcast.9 mph68%30.07 "Hg10 mi
11:15 pm21 °FPartly cloudy.8 mph68%30.08 "Hg10 mi
10:55 pm21 °FPassing clouds.8 mph68%30.08 "Hg10 mi
10:35 pm21 °FPartly cloudy.8 mph68%30.08 "Hg10 mi
9:55 pm21 °FPassing clouds.9 mph68%30.08 "Hg10 mi
9:35 pm21 °FLight snow. Passing clouds.9 mph68%30.07 "Hg10 mi
9:15 pm23 °FLight snow. Overcast.9 mph68%30.08 "Hg5 mi
8:55 pm23 °FMostly cloudy.10 mph68%30.08 "Hg10 mi
8:35 pm23 °FMostly cloudy.9 mph63%30.08 "Hg10 mi
7:55 pm21 °FClear.12 mph63%30.06 "Hg10 mi
7:35 pm21 °FPassing clouds.13 mph63%30.06 "Hg10 mi
7:15 pm21 °FPassing clouds.10 mph63%30.06 "Hg10 mi
6:55 pm23 °FPassing clouds.9 mph63%30.05 "Hg10 mi
6:35 pm23 °FClear.9 mph58%30.05 "Hg10 mi
6:15 pm23 °FClear.15 mph54%30.05 "Hg10 mi
5:55 pm23 °FPassing clouds.9 mph46%30.04 "Hg10 mi
4:35 pm27 °FBroken clouds.25 mph39%30.00 "Hg4 mi
4:15 pm27 °FPartly sunny.23 mph39%30.01 "Hg5 mi
3:55 pm27 °FPartly sunny.13 mph36%30.01 "Hg10 mi
3:35 pm28 °FScattered clouds.12 mph34%30.01 "Hg10 mi
3:15 pm28 °FScattered clouds.15 mph31%30.00 "Hg10 mi
2:55 pm28 °FBroken clouds.12 mph31%30.01 "Hg7 mi
2:35 pm28 °FPartly sunny.15 mph31%30.01 "Hg10 mi
2:15 pm28 °FPartly sunny.20 mph31%30.01 "Hg5 mi
1:55 pm28 °FMostly cloudy.18 mph31%30.01 "Hg1 mi
1:35 pm30 °FBroken clouds.18 mph31%30.01 "Hg5 mi
12:55 pm32 °FBroken clouds.13 mph32%30.01 "Hg10 mi
12:35 pm32 °FScattered clouds.8 mph34%30.02 "Hg10 mi
12:15 pm32 °FPartly sunny.12 mph32%30.03 "Hg10 mi
11:55 am32 °FPartly sunny.16 mph32%30.04 "Hg7 mi
10:55 am30 °FSunny.9 mph29%30.07 "Hg10 mi
10:35 am30 °FSunny.13 mph29%30.08 "Hg10 mi
9:55 am28 °FBroken clouds.14 mph31%30.10 "Hg10 mi
9:35 am28 °FBroken clouds.14 mph29%30.11 "Hg10 mi
9:15 am28 °FScattered clouds.12 mph29%30.12 "Hg7 mi
8:55 am28 °FBroken clouds.10 mph26%30.12 "Hg10 mi
8:35 am28 °FScattered clouds.12 mph26%30.12 "Hg10 mi
8:15 am28 °FScattered clouds.12 mph26%30.11 "Hg10 mi
7:35 am28 °FBroken clouds.13 mph29%30.12 "Hg10 mi
7:15 am28 °FScattered clouds.10 mph31%30.12 "Hg7 mi
6:35 am28 °FPassing clouds.12 mph31%30.11 "Hg10 mi
6:15 am28 °FPassing clouds.16 mph34%30.11 "Hg10 mi
5:55 am28 °FClear.10 mph37%30.11 "Hg10 mi
5:35 am27 °FPassing clouds.14 mph46%30.12 "Hg10 mi
5:15 am28 °FClear.12 mph43%30.12 "Hg10 mi
4:55 am27 °FPassing clouds.9 mph50%30.13 "Hg10 mi
4:35 am28 °FPassing clouds.14 mph43%30.13 "Hg10 mi
4:15 am28 °FPassing clouds.12 mph47%30.14 "Hg10 mi
3:55 am28 °FPassing clouds.13 mph47%30.15 "Hg10 mi
3:35 am28 °FMostly cloudy.13 mph51%30.15 "Hg10 mi
3:15 am27 °FMostly cloudy.12 mph59%30.15 "Hg10 mi
2:55 am27 °FMostly cloudy.12 mph59%30.16 "Hg10 mi
2:35 am27 °FMostly cloudy.13 mph69%30.17 "Hg10 mi
2:15 am27 °FOvercast.13 mph69%30.17 "Hg10 mi
1:55 am27 °FMostly cloudy.14 mph69%30.19 "Hg10 mi
1:35 am27 °FLight snow. Mostly cloudy.16 mph69%30.19 "Hg3 mi
Weather by CustomWeather, © 2024

See weather overview